sensor_id;sensor_type;location;lat;lon;timestamp;noise_LAeq;noise_LA_min;noise_LA_max;noise_LA01;noise_LA95
59284;Laerm;45056;47.602;9.886;2023-07-30T00:02:04;43.51;35.04;55.95;;
59284;Laerm;45056;47.602;9.886;2023-07-30T00:04:32;39.92;35.59;51.86;;
59284;Laerm;45056;47.602;9.886;2023-07-30T00:07:03;39.78;35.66;58.08;;
59284;Laerm;45056;47.602;9.886;2023-07-30T00:09:32;39.60;34.69;45.51;;
59284;Laerm;45056;47.602;9.886;2023-07-30T00:12:00;39.01;35.04;41.96;;
59284;Laerm;45056;47.602;9.886;2023-07-30T00:14:28;38.42;34.31;41.06;;
59284;Laerm;45056;47.602;9.886;2023-07-30T00:17:03;39.12;33.44;54.74;;
59284;Laerm;45056;47.602;9.886;2023-07-30T00:19:31;38.47;34.69;41.68;;
59284;Laerm;45056;47.602;9.886;2023-07-30T00:22:00;38.41;34.69;40.89;;
59284;Laerm;45056;47.602;9.886;2023-07-30T00:24:33;38.55;34.31;40.89;;
59284;Laerm;45056;47.602;9.886;2023-07-30T00:27:02;41.07;34.69;52.08;;
59284;Laerm;45056;47.602;9.886;2023-07-30T00:29:30;42.59;35.04;56.15;;
59284;Laerm;45056;47.602;9.886;2023-07-30T00:31:59;42.03;34.31;55.26;;
59284;Laerm;45056;47.602;9.886;2023-07-30T00:34:29;39.54;35.04;44.87;;
59284;Laerm;45056;47.602;9.886;2023-07-30T00:36:58;40.65;34.69;55.23;;
59284;Laerm;45056;47.602;9.886;2023-07-30T00:39:26;38.50;34.31;41.46;;
59284;Laerm;45056;47.602;9.886;2023-07-30T00:41:54;40.79;32.93;56.18;;
59284;Laerm;45056;47.602;9.886;2023-07-30T00:44:22;38.35;34.31;40.80;;
59284;Laerm;45056;47.602;9.886;2023-07-30T00:46:51;41.58;33.90;56.97;;
59284;Laerm;45056;47.602;9.886;2023-07-30T00:49:21;38.41;33.90;40.89;;
59284;Laerm;45056;47.602;9.886;2023-07-30T00:51:49;38.72;33.44;42.82;;
59284;Laerm;45056;47.602;9.886;2023-07-30T00:54:17;38.42;33.90;41.82;;
59284;Laerm;45056;47.602;9.886;2023-07-30T00:56:51;38.42;33.44;42.82;;
59284;Laerm;45056;47.602;9.886;2023-07-30T00:59:21;38.73;34.31;49.78;;
59284;Laerm;45056;47.602;9.886;2023-07-30T01:01:51;43.12;33.90;56.55;;
59284;Laerm;45056;47.602;9.886;2023-07-30T01:04:22;41.57;33.90;55.34;;
59284;Laerm;45056;47.602;9.886;2023-07-30T01:06:50;39.98;34.31;51.80;;
59284;Laerm;45056;47.602;9.886;2023-07-30T01:09:18;40.77;34.69;54.74;;
59284;Laerm;45056;47.602;9.886;2023-07-30T01:11:47;39.50;33.90;45.36;;
59284;Laerm;45056;47.602;9.886;2023-07-30T01:14:18;40.24;33.90;50.67;;
59284;Laerm;45056;47.602;9.886;2023-07-30T01:16:48;39.50;34.31;53.91;;
59284;Laerm;45056;47.602;9.886;2023-07-30T01:19:17;40.83;34.69;56.16;;
59284;Laerm;45056;47.602;9.886;2023-07-30T01:21:46;41.03;35.36;45.91;;
59284;Laerm;45056;47.602;9.886;2023-07-30T01:24:14;42.01;35.94;53.56;;
59284;Laerm;45056;47.602;9.886;2023-07-30T01:26:46;39.13;34.69;42.88;;
59284;Laerm;45056;47.602;9.886;2023-07-30T01:29:27;41.00;36.20;45.54;;
59284;Laerm;45056;47.602;9.886;2023-07-30T01:32:02;40.64;34.69;54.23;;
59284;Laerm;45056;47.602;9.886;2023-07-30T01:34:35;38.95;33.97;42.88;;
59284;Laerm;45056;47.602;9.886;2023-07-30T01:37:12;38.32;34.31;41.82;;
59284;Laerm;45056;47.602;9.886;2023-07-30T01:39:42;38.61;34.69;43.00;;
59284;Laerm;45056;47.602;9.886;2023-07-30T01:42:12;38.54;33.90;44.27;;
59284;Laerm;45056;47.602;9.886;2023-07-30T01:44:40;38.88;35.04;55.03;;
59284;Laerm;45056;47.602;9.886;2023-07-30T01:47:09;41.78;35.04;53.19;;
59284;Laerm;45056;47.602;9.886;2023-07-30T01:49:37;39.79;34.69;53.66;;
59284;Laerm;45056;47.602;9.886;2023-07-30T01:52:07;43.44;35.94;59.23;;
59284;Laerm;45056;47.602;9.886;2023-07-30T01:54:35;40.52;35.66;55.35;;
59284;Laerm;45056;47.602;9.886;2023-07-30T01:57:03;42.76;35.36;57.83;;
59284;Laerm;45056;47.602;9.886;2023-07-30T01:59:31;38.75;34.31;49.57;;
59284;Laerm;45056;47.602;9.886;2023-07-30T02:01:59;44.71;33.90;58.42;;
59284;Laerm;45056;47.602;9.886;2023-07-30T02:04:27;39.52;32.93;45.23;;
59284;Laerm;45056;47.602;9.886;2023-07-30T02:06:55;38.37;33.55;42.09;;
59284;Laerm;45056;47.602;9.886;2023-07-30T02:09:25;39.78;32.93;53.53;;
59284;Laerm;45056;47.602;9.886;2023-07-30T02:11:53;38.44;33.90;47.30;;
59284;Laerm;45056;47.602;9.886;2023-07-30T02:14:21;38.86;34.31;43.19;;
59284;Laerm;45056;47.602;9.886;2023-07-30T02:16:49;39.83;35.01;55.98;;
59284;Laerm;45056;47.602;9.886;2023-07-30T02:19:17;38.79;34.69;51.57;;
59284;Laerm;45056;47.602;9.886;2023-07-30T02:21:45;38.18;33.90;41.06;;
59284;Laerm;45056;47.602;9.886;2023-07-30T02:24:13;38.91;34.69;44.16;;
59284;Laerm;45056;47.602;9.886;2023-07-30T02:26:42;40.75;32.35;54.45;;
59284;Laerm;45056;47.602;9.886;2023-07-30T02:29:10;39.45;33.90;55.92;;
59284;Laerm;45056;47.602;9.886;2023-07-30T02:31:38;40.59;34.31;56.10;;
59284;Laerm;45056;47.602;9.886;2023-07-30T02:34:06;41.37;32.93;55.83;;
59284;Laerm;45056;47.602;9.886;2023-07-30T02:36:35;38.26;32.93;40.89;;
59284;Laerm;45056;47.602;9.886;2023-07-30T02:39:03;38.53;33.44;44.23;;
59284;Laerm;45056;47.602;9.886;2023-07-30T02:41:31;38.56;34.31;41.14;;
59284;Laerm;45056;47.602;9.886;2023-07-30T02:44:00;40.08;32.93;53.97;;
59284;Laerm;45056;47.602;9.886;2023-07-30T02:46:28;40.80;33.44;54.35;;
59284;Laerm;45056;47.602;9.886;2023-07-30T02:48:56;39.81;33.44;53.70;;
59284;Laerm;45056;47.602;9.886;2023-07-30T02:51:24;38.30;33.90;48.37;;
59284;Laerm;45056;47.602;9.886;2023-07-30T02:53:57;41.46;34.31;56.09;;
59284;Laerm;45056;47.602;9.886;2023-07-30T02:56:25;40.32;33.90;51.12;;
59284;Laerm;45056;47.602;9.886;2023-07-30T02:58:53;38.74;33.90;50.26;;
59284;Laerm;45056;47.602;9.886;2023-07-30T03:01:22;44.14;35.36;55.64;;
59284;Laerm;45056;47.602;9.886;2023-07-30T03:03:50;39.91;35.04;53.35;;
59284;Laerm;45056;47.602;9.886;2023-07-30T03:06:18;39.51;35.94;48.42;;
59284;Laerm;45056;47.602;9.886;2023-07-30T03:08:46;40.45;35.04;54.88;;
59284;Laerm;45056;47.602;9.886;2023-07-30T03:11:14;38.71;33.90;44.76;;
59284;Laerm;45056;47.602;9.886;2023-07-30T03:13:42;38.50;33.90;47.74;;
59284;Laerm;45056;47.602;9.886;2023-07-30T03:16:10;39.61;33.90;55.01;;
59284;Laerm;45056;47.602;9.886;2023-07-30T03:18:40;38.31;33.44;41.06;;
59284;Laerm;45056;47.602;9.886;2023-07-30T03:21:08;38.78;34.31;43.46;;
59284;Laerm;45056;47.602;9.886;2023-07-30T03:23:36;39.65;34.31;48.29;;
59284;Laerm;45056;47.602;9.886;2023-07-30T03:26:04;42.13;35.04;57.27;;
59284;Laerm;45056;47.602;9.886;2023-07-30T03:28:32;39.69;35.04;42.93;;
59284;Laerm;45056;47.602;9.886;2023-07-30T03:31:00;40.89;35.36;55.33;;
59284;Laerm;45056;47.602;9.886;2023-07-30T03:33:28;40.63;34.69;55.13;;
59284;Laerm;45056;47.602;9.886;2023-07-30T03:35:57;38.94;32.35;43.94;;
59284;Laerm;45056;47.602;9.886;2023-07-30T03:38:25;40.11;35.94;50.26;;
59284;Laerm;45056;47.602;9.886;2023-07-30T03:40:54;42.49;35.04;57.61;;
59284;Laerm;45056;47.602;9.886;2023-07-30T03:43:22;40.56;33.90;49.65;;
59284;Laerm;45056;47.602;9.886;2023-07-30T03:45:50;41.09;34.69;53.53;;
59284;Laerm;45056;47.602;9.886;2023-07-30T03:48:18;39.51;35.04;48.78;;
59284;Laerm;45056;47.602;9.886;2023-07-30T03:50:46;38.94;33.44;48.83;;
59284;Laerm;45056;47.602;9.886;2023-07-30T03:53:15;38.94;33.90;42.03;;
59284;Laerm;45056;47.602;9.886;2023-07-30T03:55:43;39.83;35.36;48.39;;
59284;Laerm;45056;47.602;9.886;2023-07-30T03:58:11;39.50;35.31;45.07;;
59284;Laerm;45056;47.602;9.886;2023-07-30T04:00:40;45.01;35.66;58.69;;
59284;Laerm;45056;47.602;9.886;2023-07-30T04:03:08;52.06;35.01;67.75;;
59284;Laerm;45056;47.602;9.886;2023-07-30T04:05:36;50.70;35.66;67.53;;
59284;Laerm;45056;47.602;9.886;2023-07-30T04:08:04;43.39;34.69;56.63;;
59284;Laerm;45056;47.602;9.886;2023-07-30T04:10:33;43.23;36.10;55.46;;
59284;Laerm;45056;47.602;9.886;2023-07-30T04:13:01;42.46;36.45;53.55;;
59284;Laerm;45056;47.602;9.886;2023-07-30T04:15:30;40.88;35.36;55.15;;
59284;Laerm;45056;47.602;9.886;2023-07-30T04:17:58;40.80;35.94;52.22;;
59284;Laerm;45056;47.602;9.886;2023-07-30T04:20:25;39.82;35.66;44.51;;
59284;Laerm;45056;47.602;9.886;2023-07-30T04:22:53;42.36;36.45;56.63;;
59284;Laerm;45056;47.602;9.886;2023-07-30T04:25:21;40.32;35.66;58.25;;
59284;Laerm;45056;47.602;9.886;2023-07-30T04:27:51;40.75;33.90;53.60;;
59284;Laerm;45056;47.602;9.886;2023-07-30T04:30:19;41.60;35.36;55.40;;
59284;Laerm;45056;47.602;9.886;2023-07-30T04:32:47;40.01;35.04;51.37;;
59284;Laerm;45056;47.602;9.886;2023-07-30T04:35:15;42.06;35.04;52.69;;
59284;Laerm;45056;47.602;9.886;2023-07-30T04:37:43;42.47;35.36;57.45;;
59284;Laerm;45056;47.602;9.886;2023-07-30T04:40:11;39.26;34.69;48.83;;
59284;Laerm;45056;47.602;9.886;2023-07-30T04:42:39;42.49;34.69;55.52;;
59284;Laerm;45056;47.602;9.886;2023-07-30T04:45:09;42.64;35.66;52.97;;
59284;Laerm;45056;47.602;9.886;2023-07-30T04:47:37;41.13;35.04;55.60;;
59284;Laerm;45056;47.602;9.886;2023-07-30T04:50:06;42.61;36.20;54.43;;
59284;Laerm;45056;47.602;9.886;2023-07-30T04:52:34;39.96;35.66;43.49;;
59284;Laerm;45056;47.602;9.886;2023-07-30T04:55:03;40.68;36.20;48.98;;
59284;Laerm;45056;47.602;9.886;2023-07-30T04:57:31;40.54;36.45;43.24;;
59284;Laerm;45056;47.602;9.886;2023-07-30T04:59:59;44.83;37.32;59.55;;
59284;Laerm;45056;47.602;9.886;2023-07-30T05:02:29;46.34;35.04;59.87;;
59284;Laerm;45056;47.602;9.886;2023-07-30T05:04:57;40.45;35.36;51.67;;
59284;Laerm;45056;47.602;9.886;2023-07-30T05:07:25;40.63;36.20;51.79;;
59284;Laerm;45056;47.602;9.886;2023-07-30T05:09:53;39.45;34.69;43.09;;
59284;Laerm;45056;47.602;9.886;2023-07-30T05:12:22;43.56;35.94;54.21;;
59284;Laerm;45056;47.602;9.886;2023-07-30T05:14:50;40.23;36.45;42.82;;
59284;Laerm;45056;47.602;9.886;2023-07-30T05:17:18;42.06;35.04;53.90;;
59284;Laerm;45056;47.602;9.886;2023-07-30T05:19:47;57.35;36.20;93.02;;
59284;Laerm;45056;47.602;9.886;2023-07-30T05:22:15;40.51;34.69;51.77;;
59284;Laerm;45056;47.602;9.886;2023-07-30T05:24:43;41.55;35.66;52.80;;
59284;Laerm;45056;47.602;9.886;2023-07-30T05:27:13;41.81;35.66;53.96;;
59284;Laerm;45056;47.602;9.886;2023-07-30T05:29:41;40.69;35.36;49.18;;
59284;Laerm;45056;47.602;9.886;2023-07-30T05:32:09;42.81;37.12;53.74;;
59284;Laerm;45056;47.602;9.886;2023-07-30T05:34:37;42.83;36.69;53.21;;
59284;Laerm;45056;47.602;9.886;2023-07-30T05:37:10;42.06;36.20;52.47;;
59284;Laerm;45056;47.602;9.886;2023-07-30T05:39:38;42.19;36.20;54.73;;
59284;Laerm;45056;47.602;9.886;2023-07-30T05:42:06;40.70;35.94;49.70;;
59284;Laerm;45056;47.602;9.886;2023-07-30T05:44:34;42.30;36.91;53.96;;
59284;Laerm;45056;47.602;9.886;2023-07-30T05:47:03;45.26;37.70;60.51;;
59284;Laerm;45056;47.602;9.886;2023-07-30T05:49:31;41.17;36.20;52.14;;
59284;Laerm;45056;47.602;9.886;2023-07-30T05:51:59;43.65;36.45;55.84;;
59284;Laerm;45056;47.602;9.886;2023-07-30T05:54:28;42.13;36.69;51.03;;
59284;Laerm;45056;47.602;9.886;2023-07-30T05:56:56;44.32;36.69;57.64;;
59284;Laerm;45056;47.602;9.886;2023-07-30T05:59:24;41.20;36.69;46.50;;
59284;Laerm;45056;47.602;9.886;2023-07-30T06:01:52;46.35;37.52;57.87;;
59284;Laerm;45056;47.602;9.886;2023-07-30T06:04:20;39.89;35.94;48.64;;
59284;Laerm;45056;47.602;9.886;2023-07-30T06:06:48;43.77;36.69;56.49;;
59284;Laerm;45056;47.602;9.886;2023-07-30T06:09:16;41.65;36.91;54.44;;
59284;Laerm;45056;47.602;9.886;2023-07-30T06:11:46;42.81;36.69;69.20;;
59284;Laerm;45056;47.602;9.886;2023-07-30T06:14:14;41.93;37.70;54.25;;
59284;Laerm;45056;47.602;9.886;2023-07-30T06:16:42;43.32;37.32;55.93;;
59284;Laerm;45056;47.602;9.886;2023-07-30T06:19:11;44.81;36.45;56.96;;
59284;Laerm;45056;47.602;9.886;2023-07-30T06:21:39;42.91;36.45;57.08;;
59284;Laerm;45056;47.602;9.886;2023-07-30T06:24:07;41.68;36.45;53.67;;
59284;Laerm;45056;47.602;9.886;2023-07-30T06:26:35;42.06;37.88;52.28;;
59284;Laerm;45056;47.602;9.886;2023-07-30T06:29:06;41.33;37.52;58.51;;
59284;Laerm;45056;47.602;9.886;2023-07-30T06:31:34;45.70;37.88;59.93;;
59284;Laerm;45056;47.602;9.886;2023-07-30T06:34:03;42.47;36.45;54.34;;
59284;Laerm;45056;47.602;9.886;2023-07-30T06:36:31;42.50;37.70;55.67;;
59284;Laerm;45056;47.602;9.886;2023-07-30T06:38:59;43.35;37.70;54.88;;
59284;Laerm;45056;47.602;9.886;2023-07-30T06:41:27;43.97;37.12;55.42;;
59284;Laerm;45056;47.602;9.886;2023-07-30T06:43:55;41.69;36.69;50.96;;
59284;Laerm;45056;47.602;9.886;2023-07-30T06:46:24;46.19;38.37;58.38;;
59284;Laerm;45056;47.602;9.886;2023-07-30T06:48:52;41.97;37.88;52.96;;
59284;Laerm;45056;47.602;9.886;2023-07-30T06:51:24;42.25;36.69;50.54;;
59284;Laerm;45056;47.602;9.886;2023-07-30T06:53:53;43.84;37.70;54.94;;
59284;Laerm;45056;47.602;9.886;2023-07-30T06:56:21;45.11;38.81;55.88;;
59284;Laerm;45056;47.602;9.886;2023-07-30T06:58:49;43.05;36.69;54.79;;
59284;Laerm;45056;47.602;9.886;2023-07-30T07:01:17;47.99;37.52;58.61;;
59284;Laerm;45056;47.602;9.886;2023-07-30T07:03:47;43.39;37.12;55.70;;
59284;Laerm;45056;47.602;9.886;2023-07-30T07:06:15;42.47;36.91;53.23;;
59284;Laerm;45056;47.602;9.886;2023-07-30T07:08:43;45.02;38.37;57.47;;
59284;Laerm;45056;47.602;9.886;2023-07-30T07:11:11;43.48;37.32;55.05;;
59284;Laerm;45056;47.602;9.886;2023-07-30T07:13:39;45.05;37.88;56.78;;
59284;Laerm;45056;47.602;9.886;2023-07-30T07:16:07;44.38;38.52;57.06;;
59284;Laerm;45056;47.602;9.886;2023-07-30T07:18:36;43.60;37.52;54.70;;
59284;Laerm;45056;47.602;9.886;2023-07-30T07:21:05;44.24;38.52;54.99;;
59284;Laerm;45056;47.602;9.886;2023-07-30T07:23:33;44.78;37.70;55.55;;
59284;Laerm;45056;47.602;9.886;2023-07-30T07:26:01;45.47;39.34;58.07;;
59284;Laerm;45056;47.602;9.886;2023-07-30T07:28:29;45.30;38.81;59.52;;
59284;Laerm;45056;47.602;9.886;2023-07-30T07:30:57;45.45;38.37;57.88;;
59284;Laerm;45056;47.602;9.886;2023-07-30T07:33:25;49.30;42.98;59.34;;
59284;Laerm;45056;47.602;9.886;2023-07-30T07:36:05;45.40;38.81;56.29;;
59284;Laerm;45056;47.602;9.886;2023-07-30T07:38:35;45.52;39.58;58.16;;
59284;Laerm;45056;47.602;9.886;2023-07-30T07:41:03;42.64;38.05;53.44;;
59284;Laerm;45056;47.602;9.886;2023-07-30T07:43:31;47.39;39.81;61.29;;
59284;Laerm;45056;47.602;9.886;2023-07-30T07:45:59;45.48;38.67;57.06;;
59284;Laerm;45056;47.602;9.886;2023-07-30T07:48:27;52.27;39.21;63.93;;
59284;Laerm;45056;47.602;9.886;2023-07-30T07:50:56;55.70;43.81;64.83;;
59284;Laerm;45056;47.602;9.886;2023-07-30T07:53:25;44.78;38.81;64.20;;
59284;Laerm;45056;47.602;9.886;2023-07-30T07:55:53;60.78;42.76;72.62;;
59284;Laerm;45056;47.602;9.886;2023-07-30T07:58:21;59.66;42.41;69.58;;
59284;Laerm;45056;47.602;9.886;2023-07-30T08:00:49;47.86;39.70;58.76;;
59284;Laerm;45056;47.602;9.886;2023-07-30T08:03:17;51.14;42.90;58.54;;
59284;Laerm;45056;47.602;9.886;2023-07-30T08:05:45;49.71;38.37;66.61;;
59284;Laerm;45056;47.602;9.886;2023-07-30T08:08:13;46.82;40.13;58.05;;
59284;Laerm;45056;47.602;9.886;2023-07-30T08:10:43;42.71;37.88;50.79;;
59284;Laerm;45056;47.602;9.886;2023-07-30T08:13:14;43.02;38.95;52.23;;
59284;Laerm;45056;47.602;9.886;2023-07-30T08:15:42;46.51;39.70;58.73;;
59284;Laerm;45056;47.602;9.886;2023-07-30T08:18:10;44.90;39.46;59.85;;
59284;Laerm;45056;47.602;9.886;2023-07-30T08:20:38;46.32;40.13;57.90;;
59284;Laerm;45056;47.602;9.886;2023-07-30T08:23:06;45.91;40.03;58.60;;
59284;Laerm;45056;47.602;9.886;2023-07-30T08:25:34;47.51;39.34;56.05;;
59284;Laerm;45056;47.602;9.886;2023-07-30T08:28:03;47.07;40.43;56.74;;
59284;Laerm;45056;47.602;9.886;2023-07-30T08:30:31;46.52;39.58;60.65;;
59284;Laerm;45056;47.602;9.886;2023-07-30T08:32:59;49.80;41.61;59.63;;
59284;Laerm;45056;47.602;9.886;2023-07-30T08:35:28;52.19;45.04;60.74;;
59284;Laerm;45056;47.602;9.886;2023-07-30T08:37:56;53.12;43.04;60.93;;
59284;Laerm;45056;47.602;9.886;2023-07-30T08:40:25;47.61;40.71;59.45;;
59284;Laerm;45056;47.602;9.886;2023-07-30T08:42:53;51.46;41.14;64.35;;
59284;Laerm;45056;47.602;9.886;2023-07-30T08:45:23;49.94;40.13;62.62;;
59284;Laerm;45056;47.602;9.886;2023-07-30T08:47:52;48.11;39.34;61.22;;
59284;Laerm;45056;47.602;9.886;2023-07-30T08:50:20;45.98;40.62;58.95;;
59284;Laerm;45056;47.602;9.886;2023-07-30T08:52:49;52.34;38.81;64.45;;
59284;Laerm;45056;47.602;9.886;2023-07-30T08:55:19;52.15;40.33;64.28;;
59284;Laerm;45056;47.602;9.886;2023-07-30T08:57:49;44.22;39.58;56.49;;
59284;Laerm;45056;47.602;9.886;2023-07-30T09:00:21;47.15;39.70;59.01;;
59284;Laerm;45056;47.602;9.886;2023-07-30T09:02:58;47.62;40.13;59.97;;
59284;Laerm;45056;47.602;9.886;2023-07-30T09:05:27;45.66;38.81;59.46;;
59284;Laerm;45056;47.602;9.886;2023-07-30T09:07:57;46.93;38.95;58.40;;
59284;Laerm;45056;47.602;9.886;2023-07-30T09:10:26;49.96;40.71;66.50;;
59284;Laerm;45056;47.602;9.886;2023-07-30T09:12:56;44.79;39.92;54.06;;
59284;Laerm;45056;47.602;9.886;2023-07-30T09:15:34;46.67;39.58;58.15;;
59284;Laerm;45056;47.602;9.886;2023-07-30T09:18:06;45.71;38.67;55.49;;
59284;Laerm;45056;47.602;9.886;2023-07-30T09:20:39;45.76;39.70;59.92;;
59284;Laerm;45056;47.602;9.886;2023-07-30T09:23:09;50.49;42.71;59.70;;
59284;Laerm;45056;47.602;9.886;2023-07-30T09:25:38;53.00;43.99;61.83;;
59284;Laerm;45056;47.602;9.886;2023-07-30T09:28:07;48.10;41.30;58.42;;
59284;Laerm;45056;47.602;9.886;2023-07-30T09:30:35;48.73;39.58;62.59;;
59284;Laerm;45056;47.602;9.886;2023-07-30T09:33:04;47.89;40.53;59.64;;
59284;Laerm;45056;47.602;9.886;2023-07-30T09:35:33;49.58;39.34;59.47;;
59284;Laerm;45056;47.602;9.886;2023-07-30T09:38:03;47.10;38.52;59.78;;
59284;Laerm;45056;47.602;9.886;2023-07-30T09:40:33;46.80;39.21;59.84;;
59284;Laerm;45056;47.602;9.886;2023-07-30T09:43:03;45.06;38.67;55.90;;
59284;Laerm;45056;47.602;9.886;2023-07-30T09:45:35;48.46;38.05;58.14;;
59284;Laerm;45056;47.602;9.886;2023-07-30T09:48:06;46.36;39.08;58.58;;
59284;Laerm;45056;47.602;9.886;2023-07-30T09:50:36;46.48;38.67;60.90;;
59284;Laerm;45056;47.602;9.886;2023-07-30T09:53:05;45.62;38.21;58.07;;
59284;Laerm;45056;47.602;9.886;2023-07-30T09:55:33;46.33;38.81;58.41;;
59284;Laerm;45056;47.602;9.886;2023-07-30T09:58:01;45.92;38.21;57.84;;
59284;Laerm;45056;47.602;9.886;2023-07-30T10:00:30;48.23;40.23;57.25;;
59284;Laerm;45056;47.602;9.886;2023-07-30T10:03:01;53.34;41.33;65.81;;
59284;Laerm;45056;47.602;9.886;2023-07-30T10:05:33;59.04;43.99;68.69;;
59284;Laerm;45056;47.602;9.886;2023-07-30T10:08:13;46.84;38.52;60.56;;
59284;Laerm;45056;47.602;9.886;2023-07-30T10:10:46;45.32;39.08;55.26;;
59284;Laerm;45056;47.602;9.886;2023-07-30T10:13:17;47.61;39.92;57.78;;
59284;Laerm;45056;47.602;9.886;2023-07-30T10:15:46;44.95;39.58;54.87;;
59284;Laerm;45056;47.602;9.886;2023-07-30T10:18:15;46.80;39.70;58.46;;
59284;Laerm;45056;47.602;9.886;2023-07-30T10:20:53;45.22;38.37;54.14;;
59284;Laerm;45056;47.602;9.886;2023-07-30T10:23:27;45.99;38.60;57.55;;
59284;Laerm;45056;47.602;9.886;2023-07-30T10:25:55;44.18;39.21;53.27;;
59284;Laerm;45056;47.602;9.886;2023-07-30T10:28:31;47.53;39.92;59.69;;
59284;Laerm;45056;47.602;9.886;2023-07-30T10:31:02;45.51;40.03;58.17;;
59284;Laerm;45056;47.602;9.886;2023-07-30T10:33:49;43.85;38.81;54.07;;
59284;Laerm;45056;47.602;9.886;2023-07-30T10:36:31;46.40;40.23;59.61;;
59284;Laerm;45056;47.602;9.886;2023-07-30T10:39:11;45.75;40.79;56.87;;
59284;Laerm;45056;47.602;9.886;2023-07-30T10:41:39;48.05;39.46;59.27;;
59284;Laerm;45056;47.602;9.886;2023-07-30T10:44:07;47.09;39.34;62.02;;
59284;Laerm;45056;47.602;9.886;2023-07-30T10:46:44;46.58;39.58;58.40;;
59284;Laerm;45056;47.602;9.886;2023-07-30T10:49:12;51.78;39.92;73.35;;
59284;Laerm;45056;47.602;9.886;2023-07-30T10:51:42;48.47;40.89;69.72;;
59284;Laerm;45056;47.602;9.886;2023-07-30T10:54:10;45.93;39.92;55.49;;
59284;Laerm;45056;47.602;9.886;2023-07-30T10:56:38;44.83;39.58;54.92;;
59284;Laerm;45056;47.602;9.886;2023-07-30T10:59:07;47.63;40.33;57.52;;
59284;Laerm;45056;47.602;9.886;2023-07-30T11:01:41;49.99;41.38;62.83;;
59284;Laerm;45056;47.602;9.886;2023-07-30T11:04:14;49.63;40.23;59.25;;
59284;Laerm;45056;47.602;9.886;2023-07-30T11:06:48;46.82;39.92;57.38;;
59284;Laerm;45056;47.602;9.886;2023-07-30T11:09:20;43.85;39.21;52.60;;
59284;Laerm;45056;47.602;9.886;2023-07-30T11:11:51;46.11;40.23;55.80;;
59284;Laerm;45056;47.602;9.886;2023-07-30T11:14:22;47.97;40.62;56.23;;
59284;Laerm;45056;47.602;9.886;2023-07-30T11:16:54;49.44;41.06;67.78;;
59284;Laerm;45056;47.602;9.886;2023-07-30T11:19:26;49.05;40.53;63.75;;
59284;Laerm;45056;47.602;9.886;2023-07-30T11:21:57;46.28;40.33;58.10;;
59284;Laerm;45056;47.602;9.886;2023-07-30T11:24:34;47.75;41.06;55.16;;
59284;Laerm;45056;47.602;9.886;2023-07-30T11:27:03;46.95;40.80;58.75;;
59284;Laerm;45056;47.602;9.886;2023-07-30T11:29:31;46.59;41.30;56.71;;
59284;Laerm;45056;47.602;9.886;2023-07-30T11:32:00;45.92;40.13;55.59;;
59284;Laerm;45056;47.602;9.886;2023-07-30T11:34:31;46.41;39.92;63.62;;
59284;Laerm;45056;47.602;9.886;2023-07-30T11:37:05;46.14;38.95;58.63;;
59284;Laerm;45056;47.602;9.886;2023-07-30T11:39:34;47.45;40.62;57.13;;
59284;Laerm;45056;47.602;9.886;2023-07-30T11:42:02;44.94;39.58;55.52;;
59284;Laerm;45056;47.602;9.886;2023-07-30T11:44:31;45.59;39.70;56.80;;
59284;Laerm;45056;47.602;9.886;2023-07-30T11:47:00;47.51;38.95;61.44;;
59284;Laerm;45056;47.602;9.886;2023-07-30T11:49:28;45.57;40.62;52.92;;
59284;Laerm;45056;47.602;9.886;2023-07-30T11:52:06;45.72;40.71;59.02;;
59284;Laerm;45056;47.602;9.886;2023-07-30T11:54:35;44.46;39.08;54.65;;
59284;Laerm;45056;47.602;9.886;2023-07-30T11:57:04;46.24;38.52;56.44;;
59284;Laerm;45056;47.602;9.886;2023-07-30T11:59:33;61.00;39.08;82.44;;
59284;Laerm;45056;47.602;9.886;2023-07-30T12:02:03;46.66;40.89;58.64;;
59284;Laerm;45056;47.602;9.886;2023-07-30T12:04:43;47.56;40.23;57.37;;
59284;Laerm;45056;47.602;9.886;2023-07-30T12:07:22;45.69;40.13;55.98;;
59284;Laerm;45056;47.602;9.886;2023-07-30T12:09:50;44.57;39.34;53.69;;
59284;Laerm;45056;47.602;9.886;2023-07-30T12:12:19;44.48;40.43;53.34;;
59284;Laerm;45056;47.602;9.886;2023-07-30T12:14:54;46.98;40.80;59.48;;
59284;Laerm;45056;47.602;9.886;2023-07-30T12:17:22;45.25;40.89;54.87;;
59284;Laerm;45056;47.602;9.886;2023-07-30T12:19:50;45.48;39.81;54.69;;
59284;Laerm;45056;47.602;9.886;2023-07-30T12:22:19;45.99;40.98;54.99;;
59284;Laerm;45056;47.602;9.886;2023-07-30T12:24:47;50.44;40.03;67.23;;
59284;Laerm;45056;47.602;9.886;2023-07-30T12:27:15;44.86;39.21;57.06;;
59284;Laerm;45056;47.602;9.886;2023-07-30T12:29:43;47.08;39.34;64.42;;
59284;Laerm;45056;47.602;9.886;2023-07-30T12:32:11;47.60;38.21;58.86;;
59284;Laerm;45056;47.602;9.886;2023-07-30T12:34:39;46.32;40.03;59.40;;
59284;Laerm;45056;47.602;9.886;2023-07-30T12:37:07;43.62;38.95;52.00;;
59284;Laerm;45056;47.602;9.886;2023-07-30T12:39:37;46.38;39.23;56.24;;
59284;Laerm;45056;47.602;9.886;2023-07-30T12:42:05;44.38;38.52;54.75;;
59284;Laerm;45056;47.602;9.886;2023-07-30T12:44:33;52.87;39.21;72.96;;
59284;Laerm;45056;47.602;9.886;2023-07-30T12:47:02;50.09;39.81;64.53;;
59284;Laerm;45056;47.602;9.886;2023-07-30T12:49:30;50.36;40.43;66.15;;
59284;Laerm;45056;47.602;9.886;2023-07-30T12:51:58;45.59;39.58;58.16;;
59284;Laerm;45056;47.602;9.886;2023-07-30T12:54:26;44.73;38.74;53.58;;
59284;Laerm;45056;47.602;9.886;2023-07-30T12:56:55;46.39;39.70;57.40;;
59284;Laerm;45056;47.602;9.886;2023-07-30T12:59:23;45.51;39.34;60.06;;
59284;Laerm;45056;47.602;9.886;2023-07-30T13:01:51;46.21;40.23;56.83;;
59284;Laerm;45056;47.602;9.886;2023-07-30T13:04:21;44.86;40.43;54.10;;
59284;Laerm;45056;47.602;9.886;2023-07-30T13:06:49;46.49;41.11;57.27;;
59284;Laerm;45056;47.602;9.886;2023-07-30T13:09:17;47.37;40.03;60.00;;
59284;Laerm;45056;47.602;9.886;2023-07-30T13:11:45;45.51;38.95;54.59;;
59284;Laerm;45056;47.602;9.886;2023-07-30T13:14:14;46.99;40.80;61.44;;
59284;Laerm;45056;47.602;9.886;2023-07-30T13:16:42;47.56;41.53;68.85;;
59284;Laerm;45056;47.602;9.886;2023-07-30T13:19:10;45.77;40.62;57.21;;
59284;Laerm;45056;47.602;9.886;2023-07-30T13:21:38;45.89;40.33;58.24;;
59284;Laerm;45056;47.602;9.886;2023-07-30T13:24:06;47.22;41.22;65.60;;
59284;Laerm;45056;47.602;9.886;2023-07-30T13:26:36;46.56;39.58;59.37;;
59284;Laerm;45056;47.602;9.886;2023-07-30T13:29:05;46.32;40.71;66.93;;
59284;Laerm;45056;47.602;9.886;2023-07-30T13:31:34;45.97;40.80;59.10;;
59284;Laerm;45056;47.602;9.886;2023-07-30T13:34:02;45.71;40.13;55.55;;
59284;Laerm;45056;47.602;9.886;2023-07-30T13:36:30;46.26;39.81;60.47;;
59284;Laerm;45056;47.602;9.886;2023-07-30T13:38:58;49.68;39.46;69.41;;
59284;Laerm;45056;47.602;9.886;2023-07-30T13:41:27;46.65;38.67;60.02;;
59284;Laerm;45056;47.602;9.886;2023-07-30T13:43:55;45.23;39.34;56.36;;
59284;Laerm;45056;47.602;9.886;2023-07-30T13:46:23;46.07;39.58;56.18;;
59284;Laerm;45056;47.602;9.886;2023-07-30T13:48:52;50.02;41.30;66.50;;
59284;Laerm;45056;47.602;9.886;2023-07-30T13:51:20;47.41;39.81;67.41;;
59284;Laerm;45056;47.602;9.886;2023-07-30T13:53:48;45.32;39.81;57.80;;
59284;Laerm;45056;47.602;9.886;2023-07-30T13:56:16;45.32;39.46;57.93;;